Time;durP1;ratioP1;P1;durP2;ratioP2;P2;SDS_P1;SDS_P2;PMS_P1;PMS_P2;Temp;Humidity;BMP_temperature;BMP_pressure;BME280_temperature;BME280_humidity;BME280_pressure;Samples;Min_cycle;Max_cycle;Signal;HPM_P1;HPM_P2
2023/11/15 00:00:00;;;;;;;;;;;;;;;6.73;100.00;99054.47;5032977;28;19920;-73
2023/11/15 00:02:26;;;;;;;;;;;;;;;6.83;99.73;99047.00;5032694;28;19916;-73
2023/11/15 00:04:51;;;;;;;;;;;;;;;6.89;98.50;99034.59;5031931;28;19924;-73
2023/11/15 00:07:16;;;;;;;;;;;;;;;6.93;98.12;99032.00;5031731;28;19967;-73
2023/11/15 00:09:42;;;;;;;;;;;;;;;6.85;97.24;99025.25;5032790;28;19917;-73
2023/11/15 00:12:07;;;;;;;;;;;;;;;7.00;97.64;99035.94;5015638;28;19968;-73
2023/11/15 00:14:32;;;;;;;;;;;;;;;6.96;97.61;99039.69;5030509;28;19917;-73
2023/11/15 00:16:57;;;;;;;;;;;;;;;6.95;98.69;99036.09;5025465;28;19917;-73
2023/11/15 00:19:23;;;;;;;;;;;;;;;6.97;98.83;99044.94;5012954;28;19937;-73
2023/11/15 00:21:49;;;;;;;;;;;;;;;6.92;98.89;99035.91;5026362;28;19917;-73
2023/11/15 00:24:14;;;;;;;;;;;;;;;6.51;99.50;99033.09;5030669;28;19924;-73
2023/11/15 00:26:40;;;;;;;;;;;;;;;6.43;99.52;99020.00;5032317;28;19920;-73
2023/11/15 00:29:05;;;;;;;;;;;;;;;5.97;100.00;99011.66;5032438;28;19921;-73
2023/11/15 00:31:31;;;;;;;;;;;;;;;5.88;100.00;99011.59;5032702;28;19913;-73
2023/11/15 00:33:57;;;;;;;;;;;;;;;5.94;100.00;99006.75;5031350;28;20026;-73
2023/11/15 00:36:23;;;;;;;;;;;;;;;5.96;100.00;98998.91;5011347;28;20016;-73
2023/11/15 00:38:51;;;;;;;;;;;;;;;5.80;100.00;99006.78;5012806;28;19964;-73
2023/11/15 00:41:18;;;;;;;;;;;;;;;5.94;100.00;99014.25;5013877;28;19913;-73
2023/11/15 00:43:44;;;;;;;;;;;;;;;6.10;100.00;99020.28;5031438;28;19917;-73
2023/11/15 00:46:12;;;;;;;;;;;;;;;6.21;100.00;99023.59;5032199;28;19983;-73
2023/11/15 00:48:38;;;;;;;;;;;;;;;6.13;100.00;99017.69;5030824;28;19913;-73
2023/11/15 00:51:03;;;;;;;;;;;;;;;6.31;100.00;99021.41;5031970;28;20411;-73
2023/11/15 00:53:28;;;;;;;;;;;;;;;6.45;100.00;99017.72;5019027;28;19918;-73
2023/11/15 00:55:54;;;;;;;;;;;;;;;6.30;100.00;99019.75;5031971;28;19917;-73
2023/11/15 00:58:19;;;;;;;;;;;;;;;6.09;100.00;99013.88;5032054;28;19936;-73
2023/11/15 01:00:47;;;;;;;;;;;;;;;5.78;100.00;99008.25;5029376;28;19917;-73
2023/11/15 01:03:15;;;;;;;;;;;;;;;5.95;100.00;99013.94;5012938;28;19922;-73
2023/11/15 01:05:41;;;;;;;;;;;;;;;6.03;100.00;99004.88;5012265;28;20363;-73
2023/11/15 01:08:06;;;;;;;;;;;;;;;6.09;100.00;99001.97;5014932;28;19917;-73
2023/11/15 01:10:31;;;;;;;;;;;;;;;6.34;100.00;99003.28;5011981;28;20040;-73
2023/11/15 01:12:57;;;;;;;;;;;;;;;6.36;100.00;99006.56;5022467;28;20043;-73
2023/11/15 01:15:24;;;;;;;;;;;;;;;6.48;100.00;99005.16;5030328;28;19979;-73
2023/11/15 01:17:50;;;;;;;;;;;;;;;6.58;100.00;99000.13;5023645;28;19924;-73
2023/11/15 01:20:15;;;;;;;;;;;;;;;6.69;100.00;98986.75;5031950;28;20330;-73
2023/11/15 01:22:40;;;;;;;;;;;;;;;6.67;100.00;98991.81;5031605;28;20376;-73
2023/11/15 01:25:06;;;;;;;;;;;;;;;6.82;100.00;98985.00;5031743;28;19913;-73
2023/11/15 01:27:32;;;;;;;;;;;;;;;6.95;99.67;98974.09;5014736;28;20312;-73
2023/11/15 01:29:57;;;;;;;;;;;;;;;6.94;99.64;98983.59;5031725;28;19940;-73
2023/11/15 01:32:22;;;;;;;;;;;;;;;6.91;99.06;98967.56;5031614;28;19921;-73
2023/11/15 01:34:48;;;;;;;;;;;;;;;6.88;97.98;98971.78;5031839;28;20370;-73
2023/11/15 01:37:14;;;;;;;;;;;;;;;6.83;98.36;98985.84;5034366;28;20297;-73
2023/11/15 01:39:39;;;;;;;;;;;;;;;6.86;98.97;98983.22;5033862;28;19971;-73
2023/11/15 01:42:05;;;;;;;;;;;;;;;6.79;99.30;98988.44;5029438;28;19921;-73
2023/11/15 01:44:30;;;;;;;;;;;;;;;6.37;100.00;98985.97;5035564;28;19913;-73
2023/11/15 01:46:56;;;;;;;;;;;;;;;5.73;100.00;98993.34;5035626;28;19920;-73
2023/11/15 01:49:22;;;;;;;;;;;;;;;5.66;100.00;98992.97;5033365;28;19913;-73
2023/11/15 01:51:48;;;;;;;;;;;;;;;6.08;100.00;98990.03;5035380;28;19917;-73
2023/11/15 01:54:15;;;;;;;;;;;;;;;6.33;100.00;98987.72;5034962;28;19919;-73
2023/11/15 01:56:40;;;;;;;;;;;;;;;6.43;100.00;98997.78;5029827;28;20324;-73
2023/11/15 01:59:06;;;;;;;;;;;;;;;6.35;100.00;99004.91;5028430;28;19913;-73
2023/11/15 02:01:32;;;;;;;;;;;;;;;6.52;100.00;98989.47;5034976;28;19983;-73
2023/11/15 02:03:57;;;;;;;;;;;;;;;6.50;100.00;98989.78;5035177;28;19956;-72
2023/11/15 02:06:27;;;;;;;;;;;;;;;6.59;100.00;98987.06;5035199;28;19913;-73
2023/11/15 02:08:52;;;;;;;;;;;;;;;6.55;100.00;98995.22;5034057;28;19917;-73
2023/11/15 02:11:18;;;;;;;;;;;;;;;6.45;100.00;98982.41;5035085;28;19917;-73
2023/11/15 02:13:44;;;;;;;;;;;;;;;6.50;100.00;98987.00;5033837;28;19963;-73
2023/11/15 02:16:10;;;;;;;;;;;;;;;6.51;100.00;98983.09;5034860;28;20307;-73
2023/11/15 02:18:35;;;;;;;;;;;;;;;6.48;100.00;98978.16;5032660;28;19913;-73
2023/11/15 02:21:01;;;;;;;;;;;;;;;6.45;100.00;98967.69;5034968;28;19924;-73
2023/11/15 02:23:27;;;;;;;;;;;;;;;6.47;100.00;98968.19;5034740;28;19913;-73
2023/11/15 02:25:52;;;;;;;;;;;;;;;6.32;100.00;98963.88;5034824;28;20015;-73
2023/11/15 02:28:17;;;;;;;;;;;;;;;6.44;100.00;98969.66;5033577;28;20442;-73
2023/11/15 02:30:43;;;;;;;;;;;;;;;6.44;100.00;98975.19;5018238;28;20389;-73
2023/11/15 02:33:08;;;;;;;;;;;;;;;6.46;100.00;98975.72;5014888;28;19913;-73
2023/11/15 02:35:33;;;;;;;;;;;;;;;6.53;100.00;98985.56;5014657;28;20014;-73
2023/11/15 02:37:58;;;;;;;;;;;;;;;6.56;100.00;98984.91;5017857;28;19923;-73
2023/11/15 02:40:24;;;;;;;;;;;;;;;6.60;100.00;98986.72;5034249;28;19924;-73
2023/11/15 02:42:49;;;;;;;;;;;;;;;6.64;100.00;98997.22;5034193;28;19913;-73
2023/11/15 02:45:15;;;;;;;;;;;;;;;6.61;100.00;98984.78;5014607;28;19914;-73
2023/11/15 02:47:40;;;;;;;;;;;;;;;6.72;100.00;98982.53;5013628;28;19925;-73
2023/11/15 02:50:05;;;;;;;;;;;;;;;6.70;100.00;98976.47;5034288;28;19989;-73
2023/11/15 02:52:31;;;;;;;;;;;;;;;6.54;100.00;98968.56;5034267;28;19921;-73
2023/11/15 02:54:58;;;;;;;;;;;;;;;6.56;100.00;98960.72;5034115;28;19948;-73
2023/11/15 02:57:23;;;;;;;;;;;;;;;6.57;100.00;98956.81;5032970;28;19999;-73
2023/11/15 02:59:49;;;;;;;;;;;;;;;6.63;100.00;98956.66;5033141;28;20016;-73
2023/11/15 03:02:14;;;;;;;;;;;;;;;6.66;100.00;98958.81;5033094;28;19913;-73
2023/11/15 03:04:39;;;;;;;;;;;;;;;6.68;100.00;98968.44;5014319;28;19917;-73
2023/11/15 03:07:05;;;;;;;;;;;;;;;6.77;100.00;98960.16;5014352;28;19972;-73
2023/11/15 03:09:31;;;;;;;;;;;;;;;6.84;100.00;98949.38;5028914;28;19917;-73
2023/11/15 03:11:56;;;;;;;;;;;;;;;6.72;100.00;98946.38;5034001;28;20054;-73
2023/11/15 03:14:22;;;;;;;;;;;;;;;6.73;100.00;98940.53;5033666;28;20362;-73
2023/11/15 03:16:47;;;;;;;;;;;;;;;6.92;100.00;98925.50;5033965;28;19917;-73
2023/11/15 03:19:13;;;;;;;;;;;;;;;7.03;100.00;98917.69;5032989;28;19956;-73
2023/11/15 03:21:38;;;;;;;;;;;;;;;7.10;100.00;98915.22;5019622;28;19975;-73
2023/11/15 03:24:04;;;;;;;;;;;;;;;6.97;100.00;98925.38;5027163;28;19921;-73
2023/11/15 03:26:29;;;;;;;;;;;;;;;6.97;100.00;98927.31;5033650;28;19963;-73
2023/11/15 03:28:54;;;;;;;;;;;;;;;7.07;100.00;98932.56;5032755;28;19925;-73
2023/11/15 03:31:20;;;;;;;;;;;;;;;6.87;100.00;98934.00;5032316;28;19913;-73
2023/11/15 03:33:50;;;;;;;;;;;;;;;6.81;100.00;98930.56;5032233;28;19943;-73
2023/11/15 03:36:16;;;;;;;;;;;;;;;6.70;100.00;98924.50;5026873;28;19973;-73
2023/11/15 03:38:41;;;;;;;;;;;;;;;6.57;100.00;98914.28;5021108;28;19944;-73
2023/11/15 03:41:06;;;;;;;;;;;;;;;6.44;100.00;98908.53;5031790;28;19918;-73
2023/11/15 03:43:32;;;;;;;;;;;;;;;6.52;100.00;98915.28;5033364;28;19937;-73
2023/11/15 03:45:58;;;;;;;;;;;;;;;6.49;100.00;98907.56;5033214;28;19917;-73
2023/11/15 03:48:24;;;;;;;;;;;;;;;6.50;100.00;98894.50;5032395;28;19917;-73
2023/11/15 03:50:49;;;;;;;;;;;;;;;6.59;100.00;98900.91;5033141;28;19913;-73
2023/11/15 03:53:16;;;;;;;;;;;;;;;6.12;100.00;98896.66;5014014;28;19967;-73
2023/11/15 03:55:41;;;;;;;;;;;;;;;6.33;100.00;98890.50;5013271;28;19918;-73
2023/11/15 03:58:07;;;;;;;;;;;;;;;6.43;100.00;98892.19;5015368;28;19936;-73
2023/11/15 04:00:32;;;;;;;;;;;;;;;6.39;100.00;98893.97;5032964;28;20383;-73
2023/11/15 04:02:57;;;;;;;;;;;;;;;6.43;100.00;98898.56;5033040;28;19920;-73
2023/11/15 04:05:23;;;;;;;;;;;;;;;6.56;100.00;98887.66;5032837;28;20430;-73
2023/11/15 04:07:48;;;;;;;;;;;;;;;6.31;100.00;98893.63;5030463;28;19917;-73
2023/11/15 04:10:13;;;;;;;;;;;;;;;6.46;100.00;98874.88;5032166;28;19917;-73
2023/11/15 04:12:39;;;;;;;;;;;;;;;6.54;100.00;98884.38;5032890;28;19913;-73
2023/11/15 04:15:04;;;;;;;;;;;;;;;6.46;100.00;98852.66;5032683;28;20399;-73
2023/11/15 04:17:30;;;;;;;;;;;;;;;6.42;100.00;98840.56;5031545;28;19956;-73
2023/11/15 04:19:55;;;;;;;;;;;;;;;5.92;100.00;98847.19;5031669;28;20031;-73
2023/11/15 04:22:20;;;;;;;;;;;;;;;5.93;100.00;98826.63;5032606;28;20419;-73
2023/11/15 04:24:46;;;;;;;;;;;;;;;5.47;100.00;98863.59;5027596;28;19921;-73
2023/11/15 04:27:12;;;;;;;;;;;;;;;5.76;100.00;98833.72;5012527;28;19922;-73
2023/11/15 04:29:39;;;;;;;;;;;;;;;5.64;100.00;98837.06;5026545;28;19917;-73
2023/11/15 04:32:05;;;;;;;;;;;;;;;5.64;100.00;98852.91;5032541;28;20328;-73
2023/11/15 04:34:30;;;;;;;;;;;;;;;5.59;100.00;98823.34;5032417;28;19924;-73
2023/11/15 04:36:56;;;;;;;;;;;;;;;5.28;100.00;98832.44;5032222;28;20376;-73
2023/11/15 04:39:24;;;;;;;;;;;;;;;5.23;100.00;98835.34;5031154;28;19923;-73
2023/11/15 04:41:50;;;;;;;;;;;;;;;4.96;100.00;98839.88;5018760;28;19917;-73
2023/11/15 04:44:15;;;;;;;;;;;;;;;5.26;100.00;98809.75;5022186;28;20011;-73
2023/11/15 04:46:40;;;;;;;;;;;;;;;5.13;100.00;98831.69;5032217;28;20313;-73
2023/11/15 04:49:07;;;;;;;;;;;;;;;5.48;100.00;98792.25;5031266;28;19917;-73
2023/11/15 04:51:32;;;;;;;;;;;;;;;5.31;100.00;98801.31;5030787;28;20284;-73
2023/11/15 04:53:58;;;;;;;;;;;;;;;5.41;100.00;98812.13;5032388;28;19920;-73
2023/11/15 04:56:24;;;;;;;;;;;;;;;5.36;100.00;98801.19;5030627;28;19932;-73
2023/11/15 04:58:50;;;;;;;;;;;;;;;5.38;100.00;98832.19;5020562;28;19924;-73
2023/11/15 05:01:15;;;;;;;;;;;;;;;5.47;100.00;98833.06;5031998;28;20323;-73
2023/11/15 05:03:40;;;;;;;;;;;;;;;5.59;100.00;98840.78;5032139;28;19913;-73
2023/11/15 05:06:07;;;;;;;;;;;;;;;4.99;100.00;98833.69;5031576;28;19917;-73
2023/11/15 05:08:32;;;;;;;;;;;;;;;5.37;100.00;98827.78;5030859;28;19933;-73
2023/11/15 05:10:57;;;;;;;;;;;;;;;5.52;100.00;98842.38;5026053;28;19925;-72
2023/11/15 05:13:23;;;;;;;;;;;;;;;5.31;100.00;98840.16;5029906;28;19925;-72
2023/11/15 05:15:48;;;;;;;;;;;;;;;5.28;100.00;98827.72;5031091;28;19917;-72
2023/11/15 05:18:15;;;;;;;;;;;;;;;5.53;100.00;98832.94;5030661;28;19920;-73
2023/11/15 05:20:40;;;;;;;;;;;;;;;5.68;100.00;98837.25;5031688;28;19938;-73
2023/11/15 05:23:06;;;;;;;;;;;;;;;5.60;100.00;98841.63;5031735;28;20314;-73
2023/11/15 05:25:32;;;;;;;;;;;;;;;5.70;100.00;98841.38;5031569;28;19913;-73
2023/11/15 05:27:58;;;;;;;;;;;;;;;5.84;100.00;98826.56;5029730;28;20024;-73
2023/11/15 05:30:23;;;;;;;;;;;;;;;5.94;100.00;98817.97;5029982;28;20066;-72
2023/11/15 05:32:48;;;;;;;;;;;;;;;5.93;100.00;98823.84;5031703;28;19982;-78
2023/11/15 05:35:14;;;;;;;;;;;;;;;5.28;100.00;98841.59;5030333;28;20031;-75
2023/11/15 05:37:39;;;;;;;;;;;;;;;5.58;100.00;98827.25;5031564;28;19967;-74
2023/11/15 05:40:06;;;;;;;;;;;;;;;5.72;100.00;98822.44;5029056;28;19917;-73
2023/11/15 05:42:31;;;;;;;;;;;;;;;5.62;100.00;98812.44;5031478;28;19917;-72
2023/11/15 05:44:57;;;;;;;;;;;;;;;5.67;100.00;98814.25;5032486;28;19913;-75
2023/11/15 05:47:25;;;;;;;;;;;;;;;5.92;100.00;98803.59;5015184;28;19917;-71
2023/11/15 05:49:50;;;;;;;;;;;;;;;5.92;100.00;98792.50;5025658;28;19917;-74
2023/11/15 05:52:16;;;;;;;;;;;;;;;5.89;100.00;98799.50;5031606;28;20440;-78
2023/11/15 05:54:44;;;;;;;;;;;;;;;6.04;100.00;98800.22;5031482;28;19917;-77
2023/11/15 05:57:09;;;;;;;;;;;;;;;6.29;100.00;98801.47;5031408;28;20012;-75
2023/11/15 05:59:34;;;;;;;;;;;;;;;6.47;100.00;98793.16;5030441;28;20020;-74
2023/11/15 06:02:00;;;;;;;;;;;;;;;6.62;100.00;98796.59;5030817;28;19975;-75
2023/11/15 06:04:25;;;;;;;;;;;;;;;6.57;100.00;98790.06;5026159;28;19913;-80
2023/11/15 06:06:50;;;;;;;;;;;;;;;6.69;100.00;98781.09;5026796;28;19947;-75
2023/11/15 06:09:17;;;;;;;;;;;;;;;6.77;100.00;98775.88;5025909;28;19917;-77
2023/11/15 06:11:43;;;;;;;;;;;;;;;6.85;100.00;98763.94;5027615;28;20346;-74
2023/11/15 06:14:08;;;;;;;;;;;;;;;6.98;100.00;98765.72;5024294;28;20101;-76
2023/11/15 06:16:39;;;;;;;;;;;;;;;7.16;100.00;98772.09;5027481;28;20303;-76
2023/11/15 06:19:07;;;;;;;;;;;;;;;7.35;100.00;98756.97;5025519;28;20342;-76
2023/11/15 06:21:33;;;;;;;;;;;;;;;7.41;100.00;98750.09;5030912;28;20406;-76
2023/11/15 06:23:59;;;;;;;;;;;;;;;7.54;100.00;98753.03;5030780;28;19913;-77
2023/11/15 06:26:24;;;;;;;;;;;;;;;7.67;100.00;98768.69;5033175;28;20523;-75
2023/11/15 06:28:51;;;;;;;;;;;;;;;7.90;100.00;98748.94;5030425;28;19921;-72
2023/11/15 06:31:18;;;;;;;;;;;;;;;8.12;100.00;98755.41;5030346;28;19929;-73
2023/11/15 06:33:43;;;;;;;;;;;;;;;8.33;99.83;98754.63;5024883;28;19917;-73
2023/11/15 06:36:09;;;;;;;;;;;;;;;8.28;99.44;98770.38;5027392;28;19921;-72
2023/11/15 06:38:34;;;;;;;;;;;;;;;8.56;98.19;98772.69;5016431;28;19928;-75
2023/11/15 06:41:05;;;;;;;;;;;;;;;8.70;98.22;98764.06;5029957;28;19924;-74
2023/11/15 06:43:30;;;;;;;;;;;;;;;8.81;97.10;98752.50;5027767;28;20392;-70
2023/11/15 06:45:56;;;;;;;;;;;;;;;8.79;96.86;98765.97;5030750;28;19925;-72
2023/11/15 06:48:22;;;;;;;;;;;;;;;8.76;97.60;98755.50;5029628;28;19917;-70
2023/11/15 06:50:47;;;;;;;;;;;;;;;8.70;96.93;98766.03;5028017;28;20655;-72
2023/11/15 06:53:13;;;;;;;;;;;;;;;8.08;100.00;98746.06;5028808;28;20004;-72
2023/11/15 06:55:38;;;;;;;;;;;;;;;8.15;100.00;98775.06;5026225;28;19925;-76
2023/11/15 06:58:03;;;;;;;;;;;;;;;8.23;100.00;98776.16;5030136;28;19921;-75
2023/11/15 07:00:33;;;;;;;;;;;;;;;8.41;100.00;98776.03;5031459;28;20019;-75
2023/11/15 07:02:58;;;;;;;;;;;;;;;8.46;100.00;98775.03;5025499;28;20382;-75
2023/11/15 07:05:23;;;;;;;;;;;;;;;8.43;100.00;98787.66;5011245;28;19952;-70
2023/11/15 07:07:49;;;;;;;;;;;;;;;8.44;100.00;98789.28;5030153;28;20396;-72
2023/11/15 07:10:15;;;;;;;;;;;;;;;8.57;100.00;98776.28;5013817;28;19933;-71
2023/11/15 07:12:40;;;;;;;;;;;;;;;8.73;100.00;98779.31;5025904;28;19921;-69
2023/11/15 07:15:12;;;;;;;;;;;;;;;8.85;100.00;98768.22;5027280;28;19925;-71
2023/11/15 07:17:38;;;;;;;;;;;;;;;8.96;100.00;98765.81;5029925;28;19928;-71
2023/11/15 07:20:06;;;;;;;;;;;;;;;8.78;100.00;98781.88;5030072;28;20604;-71
2023/11/15 07:22:31;;;;;;;;;;;;;;;8.88;100.00;98755.56;5018577;28;19921;-71
2023/11/15 07:24:56;;;;;;;;;;;;;;;8.71;100.00;98776.84;5027254;28;19928;-72
2023/11/15 07:27:24;;;;;;;;;;;;;;;8.82;100.00;98749.38;5030378;28;19984;-74
2023/11/15 07:29:51;;;;;;;;;;;;;;;9.01;100.00;98759.22;5023058;28;19925;-71
2023/11/15 07:32:17;;;;;;;;;;;;;;;9.01;100.00;98755.63;5030040;28;20000;-73
2023/11/15 07:34:43;;;;;;;;;;;;;;;8.61;100.00;98749.38;5021896;28;20033;-71
2023/11/15 07:37:08;;;;;;;;;;;;;;;8.98;100.00;98757.13;5029478;28;19928;-70
2023/11/15 07:39:33;;;;;;;;;;;;;;;9.22;100.00;98761.16;5023346;28;19917;-70
2023/11/15 07:42:00;;;;;;;;;;;;;;;9.44;100.00;98753.56;5030338;28;19971;-70
2023/11/15 07:44:30;;;;;;;;;;;;;;;9.29;100.00;98738.28;5030382;28;19952;-73
2023/11/15 07:46:58;;;;;;;;;;;;;;;9.30;100.00;98754.69;5027366;28;19975;-73
2023/11/15 07:49:24;;;;;;;;;;;;;;;9.44;100.00;98759.16;5025303;28;19925;-75
2023/11/15 07:51:50;;;;;;;;;;;;;;;9.44;100.00;98750.78;5028036;28;19921;-70
2023/11/15 07:54:15;;;;;;;;;;;;;;;9.51;100.00;98751.84;5027284;28;19986;-71
2023/11/15 07:56:41;;;;;;;;;;;;;;;9.53;100.00;98748.69;5028862;28;19970;-72
2023/11/15 07:59:06;;;;;;;;;;;;;;;9.46;100.00;98751.22;5026572;28;19952;-70
2023/11/15 08:01:31;;;;;;;;;;;;;;;9.36;100.00;98753.31;5029076;28;20457;-69
2023/11/15 08:03:57;;;;;;;;;;;;;;;9.42;100.00;98737.16;5029378;28;19936;-71
2023/11/15 08:06:22;;;;;;;;;;;;;;;9.43;100.00;98749.16;5026785;28;19925;-73
2023/11/15 08:08:48;;;;;;;;;;;;;;;9.49;100.00;98753.31;5027790;28;19924;-72
2023/11/15 08:11:14;;;;;;;;;;;;;;;9.44;100.00;98750.78;5024004;28;20029;-71
2023/11/15 08:13:40;;;;;;;;;;;;;;;9.52;100.00;98747.88;5026164;28;21162;-73
2023/11/15 08:16:12;;;;;;;;;;;;;;;9.71;99.49;98743.69;5026920;28;19921;-68
2023/11/15 08:18:38;;;;;;;;;;;;;;;9.82;97.99;98758.06;5028870;28;19921;-69
2023/11/15 08:21:03;;;;;;;;;;;;;;;9.95;97.43;98754.09;5027797;28;19974;-70
2023/11/15 08:23:29;;;;;;;;;;;;;;;10.04;97.14;98745.59;5026702;28;19921;-72
2023/11/15 08:25:54;;;;;;;;;;;;;;;10.19;97.31;98754.44;5025853;28;19921;-71
2023/11/15 08:28:20;;;;;;;;;;;;;;;10.42;96.34;98749.22;5026975;28;20265;-71
2023/11/15 08:30:45;;;;;;;;;;;;;;;10.35;97.16;98748.97;5025377;28;20004;-76
2023/11/15 08:33:13;;;;;;;;;;;;;;;10.34;96.16;98755.72;5024716;28;20721;-71
2023/11/15 08:35:39;;;;;;;;;;;;;;;10.23;96.09;98755.38;5027571;28;20019;-70
2023/11/15 08:38:04;;;;;;;;;;;;;;;10.53;94.28;98744.78;5021453;28;20437;-72
2023/11/15 08:40:31;;;;;;;;;;;;;;;10.53;95.70;98749.53;5027147;28;19921;-71
2023/11/15 08:42:57;;;;;;;;;;;;;;;10.69;96.38;98743.25;5026788;28;19984;-74
2023/11/15 08:45:22;;;;;;;;;;;;;;;10.95;94.48;98740.00;5026027;28;19974;-71
2023/11/15 08:47:47;;;;;;;;;;;;;;;11.22;93.84;98732.75;5028475;28;19925;-71
2023/11/15 08:50:14;;;;;;;;;;;;;;;11.58;93.44;98712.50;5026455;28;20550;-71
2023/11/15 08:52:40;;;;;;;;;;;;;;;11.66;91.52;98717.13;5029254;28;20449;-71
2023/11/15 08:55:10;;;;;;;;;;;;;;;11.83;90.76;98713.16;5028498;28;19925;-71
2023/11/15 08:57:35;;;;;;;;;;;;;;;11.94;91.68;98708.63;5026719;28;19956;-71
2023/11/15 09:00:01;;;;;;;;;;;;;;;12.11;89.79;98717.84;5028614;28;19980;-72
2023/11/15 09:02:26;;;;;;;;;;;;;;;12.24;88.93;98714.94;5022817;28;19924;-72
2023/11/15 09:04:52;;;;;;;;;;;;;;;12.26;88.87;98709.75;5023079;28;19928;-72
2023/11/15 09:07:19;;;;;;;;;;;;;;;12.48;88.00;98706.28;5026210;28;19921;-72
2023/11/15 09:09:45;;;;;;;;;;;;;;;12.48;88.03;98702.63;5025523;28;19921;-72
2023/11/15 09:12:11;;;;;;;;;;;;;;;12.10;87.73;98691.00;5025754;28;20016;-72
2023/11/15 09:14:39;;;;;;;;;;;;;;;11.77;89.79;98693.00;5025269;28;20048;-72
2023/11/15 09:17:05;;;;;;;;;;;;;;;11.90;89.49;98693.69;5022551;28;20558;-71
2023/11/15 09:19:33;;;;;;;;;;;;;;;11.94;88.94;98691.81;5026742;28;19976;-72
2023/11/15 09:22:10;;;;;;;;;;;;;;;12.00;88.00;98683.91;5026180;28;19928;-71
2023/11/15 09:24:37;;;;;;;;;;;;;;;12.10;88.21;98688.19;5026786;28;20010;-72
2023/11/15 09:27:02;;;;;;;;;;;;;;;12.59;87.01;98674.84;5026272;28;20415;-72
2023/11/15 09:29:28;;;;;;;;;;;;;;;12.97;85.67;98670.41;5026312;28;19921;-72
2023/11/15 09:31:54;;;;;;;;;;;;;;;12.89;82.09;98677.03;5025633;28;19932;-71
2023/11/15 09:34:19;;;;;;;;;;;;;;;13.06;82.41;98653.31;5026237;28;20419;-72
2023/11/15 09:36:44;;;;;;;;;;;;;;;13.37;80.70;98650.66;5023275;28;19925;-71
2023/11/15 09:39:10;;;;;;;;;;;;;;;13.33;81.02;98644.97;5022916;28;19921;-72
2023/11/15 09:41:36;;;;;;;;;;;;;;;13.61;80.32;98650.31;5027203;28;19924;-72
2023/11/15 09:44:09;;;;;;;;;;;;;;;13.54;79.12;98655.00;5027415;28;19917;-72
2023/11/15 09:46:36;;;;;;;;;;;;;;;13.57;78.00;98657.88;5025260;28;19931;-72
2023/11/15 09:49:01;;;;;;;;;;;;;;;13.53;78.00;98650.56;5025110;28;19917;-72
2023/11/15 09:51:32;;;;;;;;;;;;;;;13.72;78.51;98638.44;5026412;28;20292;-72
2023/11/15 09:53:59;;;;;;;;;;;;;;;13.78;77.94;98636.94;5025447;28;20010;-73
2023/11/15 09:56:25;;;;;;;;;;;;;;;13.80;77.08;98623.31;5022621;28;19921;-71
2023/11/15 09:58:50;;;;;;;;;;;;;;;13.72;77.98;98619.59;5029514;28;19921;-69
2023/11/15 10:01:16;;;;;;;;;;;;;;;13.88;76.54;98619.44;5028624;28;19913;-71
2023/11/15 10:03:41;;;;;;;;;;;;;;;13.78;77.07;98597.59;5015315;28;20008;-70
2023/11/15 10:06:08;;;;;;;;;;;;;;;13.77;76.91;98607.22;5027723;28;20010;-70
2023/11/15 10:08:34;;;;;;;;;;;;;;;13.70;78.01;98607.94;5029089;28;19925;-70
2023/11/15 10:11:08;;;;;;;;;;;;;;;13.49;78.90;98608.38;5027046;28;20406;-70
2023/11/15 10:13:35;;;;;;;;;;;;;;;13.59;78.16;98601.31;5030044;28;20047;-70
2023/11/15 10:16:02;;;;;;;;;;;;;;;13.43;78.23;98621.09;5029110;28;19930;-70
2023/11/15 10:18:29;;;;;;;;;;;;;;;13.51;79.14;98622.06;5028179;28;19917;-70
2023/11/15 10:21:07;;;;;;;;;;;;;;;13.53;80.07;98634.53;5028284;28;19925;-68
2023/11/15 10:23:32;;;;;;;;;;;;;;;13.59;80.09;98621.78;5028827;28;20346;-69
2023/11/15 10:26:00;;;;;;;;;;;;;;;13.73;78.21;98612.78;5031793;28;19962;-69
2023/11/15 10:28:32;;;;;;;;;;;;;;;13.92;78.79;98610.25;5026541;28;19928;-68
2023/11/15 10:31:04;;;;;;;;;;;;;;;13.85;78.17;98603.31;5014455;28;19964;-69
2023/11/15 10:33:30;;;;;;;;;;;;;;;13.97;78.61;98599.50;5019949;28;20471;-71
2023/11/15 10:35:55;;;;;;;;;;;;;;;14.07;78.76;98598.00;5029524;28;20011;-72
2023/11/15 10:38:23;;;;;;;;;;;;;;;14.21;78.20;98597.41;5032151;28;19917;-72
2023/11/15 10:40:49;;;;;;;;;;;;;;;14.46;76.60;98611.00;5032075;28;19974;-71
2023/11/15 10:43:16;;;;;;;;;;;;;;;14.42;73.91;98619.38;5030771;28;20022;-70
2023/11/15 10:45:45;;;;;;;;;;;;;;;14.42;75.90;98608.13;5029468;28;20722;-69
2023/11/15 10:48:11;;;;;;;;;;;;;;;14.50;76.23;98619.47;5028272;28;20420;-69
2023/11/15 10:50:45;;;;;;;;;;;;;;;14.60;75.59;98624.44;5026601;28;20018;-71
2023/11/15 10:53:11;;;;;;;;;;;;;;;14.46;74.94;98631.47;5030469;28;20447;-73
2023/11/15 10:55:39;;;;;;;;;;;;;;;14.28;76.27;98636.06;5026709;28;20427;-72
2023/11/15 10:58:06;;;;;;;;;;;;;;;14.38;75.98;98646.66;5017671;28;19970;-70
2023/11/15 11:00:34;;;;;;;;;;;;;;;14.14;76.24;98653.53;5016928;28;20016;-70
2023/11/15 11:03:01;;;;;;;;;;;;;;;14.41;76.21;98662.78;5025655;28;19931;-69
2023/11/15 11:05:34;;;;;;;;;;;;;;;14.27;74.99;98680.25;5023090;28;19921;-69
2023/11/15 11:08:07;;;;;;;;;;;;;;;14.22;75.77;98683.41;5026775;28;19928;-70
2023/11/15 11:10:42;;;;;;;;;;;;;;;14.25;76.33;98684.66;5024032;28;19921;-69
2023/11/15 11:13:21;;;;;;;;;;;;;;;14.13;76.51;98697.75;5025932;28;19928;-70
2023/11/15 11:15:47;;;;;;;;;;;;;;;14.44;76.13;98703.41;5021737;28;19920;-69
2023/11/15 11:18:16;;;;;;;;;;;;;;;14.56;76.50;98707.97;5031225;28;19913;-70
2023/11/15 11:21:02;;;;;;;;;;;;;;;14.77;77.86;98715.13;5030428;28;20007;-71
2023/11/15 11:23:30;;;;;;;;;;;;;;;14.94;73.35;98717.34;5030358;28;20392;-71
2023/11/15 11:26:15;;;;;;;;;;;;;;;15.23;71.22;98728.97;5027745;28;20015;-71
2023/11/15 11:29:02;;;;;;;;;;;;;;;15.09;70.41;98735.25;5028306;28;20300;-70
2023/11/15 11:31:28;;;;;;;;;;;;;;;15.30;70.33;98739.50;5028866;28;19917;-70
2023/11/15 11:34:10;;;;;;;;;;;;;;;15.56;68.86;98749.84;5028293;28;20331;-69
2023/11/15 11:36:45;;;;;;;;;;;;;;;15.82;69.74;98758.56;5024632;28;20436;-73
2023/11/15 11:39:12;;;;;;;;;;;;;;;16.11;67.99;98768.13;5020374;28;19921;-69
2023/11/15 11:41:37;;;;;;;;;;;;;;;16.19;67.93;98776.66;5030495;28;19921;-70
2023/11/15 11:44:04;;;;;;;;;;;;;;;16.36;67.94;98775.97;5028961;28;19932;-68
2023/11/15 11:46:30;;;;;;;;;;;;;;;16.09;69.77;98773.34;5027936;28;20399;-70
2023/11/15 11:49:02;;;;;;;;;;;;;;;16.07;69.84;98781.41;5029175;28;19921;-71
2023/11/15 11:51:27;;;;;;;;;;;;;;;16.28;69.72;98777.94;5029613;28;19928;-74
2023/11/15 11:53:54;;;;;;;;;;;;;;;16.22;67.82;98776.66;5029513;28;20012;-72
2023/11/15 11:56:19;;;;;;;;;;;;;;;16.26;69.08;98785.16;5030225;28;19917;-71
2023/11/15 11:58:45;;;;;;;;;;;;;;;15.93;68.68;98782.06;5030093;28;19921;-70
2023/11/15 12:01:11;;;;;;;;;;;;;;;15.81;69.71;98779.50;5030134;28;20392;-71
2023/11/15 12:03:39;;;;;;;;;;;;;;;15.79;69.48;98787.53;5033049;28;19917;-71
2023/11/15 12:06:09;;;;;;;;;;;;;;;15.83;68.79;98780.75;5028324;28;19925;-71
2023/11/15 12:08:35;;;;;;;;;;;;;;;15.75;69.43;98776.22;5030746;28;19944;-71
2023/11/15 12:11:01;;;;;;;;;;;;;;;15.57;69.75;98779.69;5032989;28;19924;-71
2023/11/15 12:13:26;;;;;;;;;;;;;;;15.68;70.86;98770.50;5027398;28;19917;-71
2023/11/15 12:15:51;;;;;;;;;;;;;;;15.62;71.32;98774.88;5029441;28;19931;-71
2023/11/15 12:18:17;;;;;;;;;;;;;;;15.65;70.54;98776.91;5030852;28;19987;-71
2023/11/15 12:20:43;;;;;;;;;;;;;;;15.55;71.53;98781.25;5028675;28;19974;-72
2023/11/15 12:23:12;;;;;;;;;;;;;;;15.53;71.06;98783.66;5030323;28;19921;-71
2023/11/15 12:25:53;;;;;;;;;;;;;;;15.52;71.24;98776.41;5031018;28;20467;-71
2023/11/15 12:28:23;;;;;;;;;;;;;;;15.53;70.53;98786.47;5030057;28;19965;-71
2023/11/15 12:30:49;;;;;;;;;;;;;;;15.50;71.29;98787.22;5030858;28;20396;-71
2023/11/15 12:33:15;;;;;;;;;;;;;;;15.46;70.54;98777.91;5026291;28;19983;-71
2023/11/15 12:35:40;;;;;;;;;;;;;;;15.51;70.91;98786.03;5028117;28;20391;-71
2023/11/15 12:38:07;;;;;;;;;;;;;;;15.55;71.30;98782.03;5029385;28;19917;-71
2023/11/15 12:40:36;;;;;;;;;;;;;;;15.50;72.56;98776.78;5030599;28;19961;-71
2023/11/15 12:43:27;;;;;;;;;;;;;;;15.36;74.46;98779.44;5031906;28;19951;-71